sensor_id;sensor_type;location;lat;lon;timestamp;P1;durP1;ratioP1;P2;durP2;ratioP2
12654;SDS011;6392;44.644;11.448;2024-02-21T00:00:20;23.97;;;15.10;;
12654;SDS011;6392;44.644;11.448;2024-02-21T00:02:47;23.07;;;15.60;;
12654;SDS011;6392;44.644;11.448;2024-02-21T00:05:14;25.53;;;15.77;;
12654;SDS011;6392;44.644;11.448;2024-02-21T00:07:42;22.53;;;15.37;;
12654;SDS011;6392;44.644;11.448;2024-02-21T00:10:09;26.73;;;16.70;;
12654;SDS011;6392;44.644;11.448;2024-02-21T00:12:36;25.70;;;16.53;;
12654;SDS011;6392;44.644;11.448;2024-02-21T00:15:03;30.20;;;19.13;;
12654;SDS011;6392;44.644;11.448;2024-02-21T00:17:31;30.53;;;19.17;;
12654;SDS011;6392;44.644;11.448;2024-02-21T00:19:58;26.33;;;18.40;;
12654;SDS011;6392;44.644;11.448;2024-02-21T00:22:25;28.40;;;18.43;;
12654;SDS011;6392;44.644;11.448;2024-02-21T00:24:55;30.83;;;19.57;;
12654;SDS011;6392;44.644;11.448;2024-02-21T00:27:23;32.23;;;19.70;;
12654;SDS011;6392;44.644;11.448;2024-02-21T00:29:50;35.73;;;21.10;;
12654;SDS011;6392;44.644;11.448;2024-02-21T00:32:18;31.33;;;18.47;;
12654;SDS011;6392;44.644;11.448;2024-02-21T00:34:45;30.57;;;20.03;;
12654;SDS011;6392;44.644;11.448;2024-02-21T00:37:12;34.03;;;20.13;;
12654;SDS011;6392;44.644;11.448;2024-02-21T00:39:38;31.43;;;18.53;;
12654;SDS011;6392;44.644;11.448;2024-02-21T00:42:08;28.93;;;18.43;;
12654;SDS011;6392;44.644;11.448;2024-02-21T00:44:35;29.33;;;17.33;;
12654;SDS011;6392;44.644;11.448;2024-02-21T00:47:02;27.87;;;18.10;;
12654;SDS011;6392;44.644;11.448;2024-02-21T00:49:29;26.20;;;16.87;;
12654;SDS011;6392;44.644;11.448;2024-02-21T00:51:56;24.53;;;15.63;;
12654;SDS011;6392;44.644;11.448;2024-02-21T00:54:24;22.93;;;14.60;;
12654;SDS011;6392;44.644;11.448;2024-02-21T00:56:50;22.50;;;15.23;;
12654;SDS011;6392;44.644;11.448;2024-02-21T00:59:19;27.70;;;17.47;;
12654;SDS011;6392;44.644;11.448;2024-02-21T01:01:46;29.30;;;16.53;;
12654;SDS011;6392;44.644;11.448;2024-02-21T01:04:13;34.70;;;19.90;;
12654;SDS011;6392;44.644;11.448;2024-02-21T01:06:40;32.03;;;19.83;;
12654;SDS011;6392;44.644;11.448;2024-02-21T01:09:09;36.57;;;21.10;;
12654;SDS011;6392;44.644;11.448;2024-02-21T01:11:36;37.03;;;21.90;;
12654;SDS011;6392;44.644;11.448;2024-02-21T01:14:03;36.60;;;21.60;;
12654;SDS011;6392;44.644;11.448;2024-02-21T01:16:31;36.83;;;20.47;;
12654;SDS011;6392;44.644;11.448;2024-02-21T01:18:58;33.23;;;20.10;;
12654;SDS011;6392;44.644;11.448;2024-02-21T01:21:25;31.33;;;19.43;;
12654;SDS011;6392;44.644;11.448;2024-02-21T01:23:53;33.63;;;19.63;;
12654;SDS011;6392;44.644;11.448;2024-02-21T01:26:20;40.23;;;22.10;;
12654;SDS011;6392;44.644;11.448;2024-02-21T01:28:47;33.80;;;21.27;;
12654;SDS011;6392;44.644;11.448;2024-02-21T01:31:14;35.97;;;21.57;;
12654;SDS011;6392;44.644;11.448;2024-02-21T01:33:42;38.20;;;22.40;;
12654;SDS011;6392;44.644;11.448;2024-02-21T01:36:09;36.03;;;21.07;;
12654;SDS011;6392;44.644;11.448;2024-02-21T01:38:36;37.07;;;19.83;;
12654;SDS011;6392;44.644;11.448;2024-02-21T01:41:03;35.87;;;19.93;;
12654;SDS011;6392;44.644;11.448;2024-02-21T01:43:30;34.87;;;20.87;;
12654;SDS011;6392;44.644;11.448;2024-02-21T01:45:57;32.47;;;20.30;;
12654;SDS011;6392;44.644;11.448;2024-02-21T01:48:24;36.50;;;21.30;;
12654;SDS011;6392;44.644;11.448;2024-02-21T01:50:53;33.87;;;19.43;;
12654;SDS011;6392;44.644;11.448;2024-02-21T01:53:21;33.37;;;20.33;;
12654;SDS011;6392;44.644;11.448;2024-02-21T01:55:51;32.13;;;18.60;;
12654;SDS011;6392;44.644;11.448;2024-02-21T01:58:20;30.63;;;19.17;;
12654;SDS011;6392;44.644;11.448;2024-02-21T02:00:48;30.67;;;18.77;;
12654;SDS011;6392;44.644;11.448;2024-02-21T02:03:15;32.87;;;20.03;;
12654;SDS011;6392;44.644;11.448;2024-02-21T02:05:43;33.60;;;20.27;;
12654;SDS011;6392;44.644;11.448;2024-02-21T02:08:12;33.17;;;19.90;;
12654;SDS011;6392;44.644;11.448;2024-02-21T02:10:40;32.93;;;18.47;;
12654;SDS011;6392;44.644;11.448;2024-02-21T02:13:08;36.97;;;21.50;;
12654;SDS011;6392;44.644;11.448;2024-02-21T02:15:38;34.90;;;21.00;;
12654;SDS011;6392;44.644;11.448;2024-02-21T02:18:06;38.60;;;22.47;;
12654;SDS011;6392;44.644;11.448;2024-02-21T02:20:33;34.37;;;21.57;;
12654;SDS011;6392;44.644;11.448;2024-02-21T02:23:00;39.27;;;22.40;;
12654;SDS011;6392;44.644;11.448;2024-02-21T02:25:34;42.20;;;24.20;;
12654;SDS011;6392;44.644;11.448;2024-02-21T02:28:02;45.30;;;24.40;;
12654;SDS011;6392;44.644;11.448;2024-02-21T02:30:31;43.33;;;23.00;;
12654;SDS011;6392;44.644;11.448;2024-02-21T02:32:59;48.07;;;24.50;;
12654;SDS011;6392;44.644;11.448;2024-02-21T02:35:26;41.83;;;23.57;;
12654;SDS011;6392;44.644;11.448;2024-02-21T02:37:53;42.53;;;24.27;;
12654;SDS011;6392;44.644;11.448;2024-02-21T02:40:20;40.43;;;23.57;;
12654;SDS011;6392;44.644;11.448;2024-02-21T02:42:49;45.33;;;25.67;;
12654;SDS011;6392;44.644;11.448;2024-02-21T02:45:16;42.33;;;24.87;;
12654;SDS011;6392;44.644;11.448;2024-02-21T02:47:44;40.40;;;22.80;;
12654;SDS011;6392;44.644;11.448;2024-02-21T02:50:12;44.20;;;24.00;;
12654;SDS011;6392;44.644;11.448;2024-02-21T02:52:39;40.03;;;22.80;;
12654;SDS011;6392;44.644;11.448;2024-02-21T02:55:06;40.10;;;22.83;;
12654;SDS011;6392;44.644;11.448;2024-02-21T02:57:34;38.20;;;21.30;;
12654;SDS011;6392;44.644;11.448;2024-02-21T03:00:02;38.57;;;21.53;;
12654;SDS011;6392;44.644;11.448;2024-02-21T03:02:32;35.63;;;22.30;;
12654;SDS011;6392;44.644;11.448;2024-02-21T03:04:59;39.13;;;22.07;;
12654;SDS011;6392;44.644;11.448;2024-02-21T03:07:26;37.90;;;23.17;;
12654;SDS011;6392;44.644;11.448;2024-02-21T03:09:53;41.23;;;21.97;;
12654;SDS011;6392;44.644;11.448;2024-02-21T03:12:20;34.60;;;20.50;;
12654;SDS011;6392;44.644;11.448;2024-02-21T03:14:52;34.63;;;20.30;;
12654;SDS011;6392;44.644;11.448;2024-02-21T03:17:21;39.87;;;21.43;;
12654;SDS011;6392;44.644;11.448;2024-02-21T03:19:48;39.97;;;21.57;;
12654;SDS011;6392;44.644;11.448;2024-02-21T03:22:15;37.93;;;21.27;;
12654;SDS011;6392;44.644;11.448;2024-02-21T03:24:42;37.77;;;21.70;;
12654;SDS011;6392;44.644;11.448;2024-02-21T03:27:10;36.63;;;22.33;;
12654;SDS011;6392;44.644;11.448;2024-02-21T03:29:37;35.60;;;21.50;;
12654;SDS011;6392;44.644;11.448;2024-02-21T03:32:04;38.80;;;22.20;;
12654;SDS011;6392;44.644;11.448;2024-02-21T03:34:33;37.33;;;22.47;;
12654;SDS011;6392;44.644;11.448;2024-02-21T03:37:00;37.70;;;22.23;;
12654;SDS011;6392;44.644;11.448;2024-02-21T03:39:27;42.67;;;22.23;;
12654;SDS011;6392;44.644;11.448;2024-02-21T03:41:57;39.53;;;22.27;;
12654;SDS011;6392;44.644;11.448;2024-02-21T03:44:25;37.63;;;21.03;;
12654;SDS011;6392;44.644;11.448;2024-02-21T03:46:53;37.47;;;20.73;;
12654;SDS011;6392;44.644;11.448;2024-02-21T03:49:20;35.37;;;21.23;;
12654;SDS011;6392;44.644;11.448;2024-02-21T03:51:48;39.57;;;22.73;;
12654;SDS011;6392;44.644;11.448;2024-02-21T03:54:15;30.90;;;18.23;;
12654;SDS011;6392;44.644;11.448;2024-02-21T03:56:43;32.87;;;19.13;;
12654;SDS011;6392;44.644;11.448;2024-02-21T03:59:10;32.10;;;19.73;;
12654;SDS011;6392;44.644;11.448;2024-02-21T04:01:37;30.27;;;18.23;;
12654;SDS011;6392;44.644;11.448;2024-02-21T04:04:04;31.83;;;17.83;;
12654;SDS011;6392;44.644;11.448;2024-02-21T04:06:31;31.37;;;18.53;;
12654;SDS011;6392;44.644;11.448;2024-02-21T04:09:00;37.77;;;21.17;;
12654;SDS011;6392;44.644;11.448;2024-02-21T04:11:27;34.23;;;20.13;;
12654;SDS011;6392;44.644;11.448;2024-02-21T04:13:54;33.60;;;20.77;;
12654;SDS011;6392;44.644;11.448;2024-02-21T04:16:21;35.23;;;20.73;;
12654;SDS011;6392;44.644;11.448;2024-02-21T04:18:48;33.53;;;20.07;;
12654;SDS011;6392;44.644;11.448;2024-02-21T04:21:15;35.90;;;21.00;;
12654;SDS011;6392;44.644;11.448;2024-02-21T04:23:43;38.63;;;20.90;;
12654;SDS011;6392;44.644;11.448;2024-02-21T04:26:11;34.27;;;19.63;;
12654;SDS011;6392;44.644;11.448;2024-02-21T04:28:38;35.77;;;20.10;;
12654;SDS011;6392;44.644;11.448;2024-02-21T04:31:05;34.10;;;19.77;;
12654;SDS011;6392;44.644;11.448;2024-02-21T04:33:32;36.73;;;21.47;;
12654;SDS011;6392;44.644;11.448;2024-02-21T04:35:59;35.07;;;19.53;;
12654;SDS011;6392;44.644;11.448;2024-02-21T04:38:27;37.70;;;20.17;;
12654;SDS011;6392;44.644;11.448;2024-02-21T04:40:54;34.90;;;19.47;;
12654;SDS011;6392;44.644;11.448;2024-02-21T04:43:24;37.23;;;21.20;;
12654;SDS011;6392;44.644;11.448;2024-02-21T04:45:51;36.30;;;20.93;;
12654;SDS011;6392;44.644;11.448;2024-02-21T04:48:19;36.63;;;21.03;;
12654;SDS011;6392;44.644;11.448;2024-02-21T04:50:46;33.03;;;19.07;;
12654;SDS011;6392;44.644;11.448;2024-02-21T04:53:13;28.80;;;16.80;;
12654;SDS011;6392;44.644;11.448;2024-02-21T04:55:41;24.63;;;15.70;;
12654;SDS011;6392;44.644;11.448;2024-02-21T04:58:08;27.73;;;17.20;;
12654;SDS011;6392;44.644;11.448;2024-02-21T05:00:36;30.37;;;17.13;;
12654;SDS011;6392;44.644;11.448;2024-02-21T05:03:03;29.83;;;16.60;;
12654;SDS011;6392;44.644;11.448;2024-02-21T05:05:30;30.83;;;16.80;;
12654;SDS011;6392;44.644;11.448;2024-02-21T05:07:57;28.70;;;17.50;;
12654;SDS011;6392;44.644;11.448;2024-02-21T05:10:25;28.63;;;17.27;;
12654;SDS011;6392;44.644;11.448;2024-02-21T05:12:52;27.03;;;16.30;;
12654;SDS011;6392;44.644;11.448;2024-02-21T05:15:19;29.63;;;17.67;;
12654;SDS011;6392;44.644;11.448;2024-02-21T05:17:47;31.80;;;18.13;;
12654;SDS011;6392;44.644;11.448;2024-02-21T05:20:14;28.70;;;16.37;;
12654;SDS011;6392;44.644;11.448;2024-02-21T05:22:41;33.10;;;18.63;;
12654;SDS011;6392;44.644;11.448;2024-02-21T05:25:09;34.90;;;19.53;;
12654;SDS011;6392;44.644;11.448;2024-02-21T05:27:36;34.53;;;18.60;;
12654;SDS011;6392;44.644;11.448;2024-02-21T05:30:04;31.70;;;17.70;;
12654;SDS011;6392;44.644;11.448;2024-02-21T05:32:32;33.93;;;17.73;;
12654;SDS011;6392;44.644;11.448;2024-02-21T05:35:01;37.37;;;20.40;;
12654;SDS011;6392;44.644;11.448;2024-02-21T05:37:28;36.53;;;19.40;;
12654;SDS011;6392;44.644;11.448;2024-02-21T05:39:55;33.57;;;18.97;;
12654;SDS011;6392;44.644;11.448;2024-02-21T05:42:22;32.17;;;18.97;;
12654;SDS011;6392;44.644;11.448;2024-02-21T05:44:49;32.90;;;18.13;;
12654;SDS011;6392;44.644;11.448;2024-02-21T05:47:16;37.60;;;20.17;;
12654;SDS011;6392;44.644;11.448;2024-02-21T05:49:45;37.53;;;20.30;;
12654;SDS011;6392;44.644;11.448;2024-02-21T05:52:14;37.27;;;20.50;;
12654;SDS011;6392;44.644;11.448;2024-02-21T05:54:41;38.93;;;20.63;;
12654;SDS011;6392;44.644;11.448;2024-02-21T05:57:08;39.43;;;21.13;;
12654;SDS011;6392;44.644;11.448;2024-02-21T05:59:37;34.00;;;19.10;;
12654;SDS011;6392;44.644;11.448;2024-02-21T06:02:05;36.67;;;19.50;;
12654;SDS011;6392;44.644;11.448;2024-02-21T06:04:32;37.67;;;20.33;;
12654;SDS011;6392;44.644;11.448;2024-02-21T06:06:59;36.00;;;20.37;;
12654;SDS011;6392;44.644;11.448;2024-02-21T06:09:27;34.77;;;20.17;;
12654;SDS011;6392;44.644;11.448;2024-02-21T06:11:54;32.87;;;20.20;;
12654;SDS011;6392;44.644;11.448;2024-02-21T06:14:21;35.30;;;19.23;;
12654;SDS011;6392;44.644;11.448;2024-02-21T06:16:48;35.03;;;18.10;;
12654;SDS011;6392;44.644;11.448;2024-02-21T06:19:16;28.27;;;16.73;;
12654;SDS011;6392;44.644;11.448;2024-02-21T06:21:43;32.87;;;19.53;;
12654;SDS011;6392;44.644;11.448;2024-02-21T06:24:10;31.97;;;18.70;;
12654;SDS011;6392;44.644;11.448;2024-02-21T06:26:39;32.77;;;18.60;;
12654;SDS011;6392;44.644;11.448;2024-02-21T06:29:07;31.83;;;15.57;;
12654;SDS011;6392;44.644;11.448;2024-02-21T06:31:34;24.97;;;14.87;;
12654;SDS011;6392;44.644;11.448;2024-02-21T06:34:02;28.33;;;16.40;;
12654;SDS011;6392;44.644;11.448;2024-02-21T06:36:30;28.10;;;16.80;;
12654;SDS011;6392;44.644;11.448;2024-02-21T06:38:58;26.13;;;15.73;;
12654;SDS011;6392;44.644;11.448;2024-02-21T06:41:25;29.80;;;16.90;;
12654;SDS011;6392;44.644;11.448;2024-02-21T06:43:53;30.13;;;16.90;;
12654;SDS011;6392;44.644;11.448;2024-02-21T06:46:24;29.87;;;17.13;;
12654;SDS011;6392;44.644;11.448;2024-02-21T06:48:51;35.57;;;18.43;;
12654;SDS011;6392;44.644;11.448;2024-02-21T06:51:18;32.17;;;18.47;;
12654;SDS011;6392;44.644;11.448;2024-02-21T06:53:45;33.27;;;17.93;;
12654;SDS011;6392;44.644;11.448;2024-02-21T06:56:12;31.90;;;17.77;;
12654;SDS011;6392;44.644;11.448;2024-02-21T06:58:39;35.40;;;19.40;;
12654;SDS011;6392;44.644;11.448;2024-02-21T07:01:08;31.93;;;18.37;;
12654;SDS011;6392;44.644;11.448;2024-02-21T07:03:36;27.47;;;16.77;;
12654;SDS011;6392;44.644;11.448;2024-02-21T07:06:03;32.10;;;18.00;;
12654;SDS011;6392;44.644;11.448;2024-02-21T07:08:30;33.07;;;17.30;;
12654;SDS011;6392;44.644;11.448;2024-02-21T07:10:57;31.90;;;17.73;;
12654;SDS011;6392;44.644;11.448;2024-02-21T07:13:24;30.93;;;16.77;;
12654;SDS011;6392;44.644;11.448;2024-02-21T07:15:51;27.93;;;16.97;;
12654;SDS011;6392;44.644;11.448;2024-02-21T07:18:20;35.63;;;17.93;;
12654;SDS011;6392;44.644;11.448;2024-02-21T07:20:47;31.30;;;17.93;;
12654;SDS011;6392;44.644;11.448;2024-02-21T07:23:14;33.07;;;17.07;;
12654;SDS011;6392;44.644;11.448;2024-02-21T07:25:41;31.90;;;17.40;;
12654;SDS011;6392;44.644;11.448;2024-02-21T07:28:08;27.03;;;16.53;;
12654;SDS011;6392;44.644;11.448;2024-02-21T07:30:35;33.07;;;17.87;;
12654;SDS011;6392;44.644;11.448;2024-02-21T07:33:02;31.50;;;17.10;;
12654;SDS011;6392;44.644;11.448;2024-02-21T07:35:31;30.80;;;17.87;;
12654;SDS011;6392;44.644;11.448;2024-02-21T07:37:58;32.00;;;18.27;;
12654;SDS011;6392;44.644;11.448;2024-02-21T07:40:25;33.57;;;18.57;;
12654;SDS011;6392;44.644;11.448;2024-02-21T07:42:52;32.90;;;17.77;;
12654;SDS011;6392;44.644;11.448;2024-02-21T07:45:19;34.33;;;18.83;;
12654;SDS011;6392;44.644;11.448;2024-02-21T07:47:48;35.47;;;17.83;;
12654;SDS011;6392;44.644;11.448;2024-02-21T07:50:16;32.73;;;18.70;;
12654;SDS011;6392;44.644;11.448;2024-02-21T07:52:44;38.40;;;19.50;;
12654;SDS011;6392;44.644;11.448;2024-02-21T07:55:11;33.77;;;19.47;;
12654;SDS011;6392;44.644;11.448;2024-02-21T07:57:38;34.73;;;18.73;;
12654;SDS011;6392;44.644;11.448;2024-02-21T08:00:06;36.17;;;19.73;;
12654;SDS011;6392;44.644;11.448;2024-02-21T08:02:38;37.97;;;18.77;;
12654;SDS011;6392;44.644;11.448;2024-02-21T08:05:07;39.77;;;19.73;;
12654;SDS011;6392;44.644;11.448;2024-02-21T08:07:37;36.23;;;19.90;;
12654;SDS011;6392;44.644;11.448;2024-02-21T08:10:06;31.17;;;19.17;;
12654;SDS011;6392;44.644;11.448;2024-02-21T08:12:33;32.60;;;19.90;;
12654;SDS011;6392;44.644;11.448;2024-02-21T08:15:00;34.53;;;20.03;;
12654;SDS011;6392;44.644;11.448;2024-02-21T08:17:28;34.03;;;19.53;;
12654;SDS011;6392;44.644;11.448;2024-02-21T08:19:55;35.73;;;19.00;;
12654;SDS011;6392;44.644;11.448;2024-02-21T08:22:23;38.20;;;22.27;;
12654;SDS011;6392;44.644;11.448;2024-02-21T08:24:50;34.97;;;19.67;;
12654;SDS011;6392;44.644;11.448;2024-02-21T08:27:18;44.70;;;22.33;;
12654;SDS011;6392;44.644;11.448;2024-02-21T08:29:45;39.03;;;20.40;;
12654;SDS011;6392;44.644;11.448;2024-02-21T08:32:12;38.97;;;21.83;;
12654;SDS011;6392;44.644;11.448;2024-02-21T08:34:39;36.70;;;21.03;;
12654;SDS011;6392;44.644;11.448;2024-02-21T08:37:06;35.27;;;20.40;;
12654;SDS011;6392;44.644;11.448;2024-02-21T08:39:35;35.50;;;19.53;;
12654;SDS011;6392;44.644;11.448;2024-02-21T08:42:03;30.77;;;19.47;;
12654;SDS011;6392;44.644;11.448;2024-02-21T08:44:32;36.33;;;20.23;;
12654;SDS011;6392;44.644;11.448;2024-02-21T08:46:59;37.17;;;21.93;;
12654;SDS011;6392;44.644;11.448;2024-02-21T08:49:28;34.37;;;20.77;;
12654;SDS011;6392;44.644;11.448;2024-02-21T08:51:56;35.80;;;20.73;;
12654;SDS011;6392;44.644;11.448;2024-02-21T08:54:23;40.83;;;22.10;;
12654;SDS011;6392;44.644;11.448;2024-02-21T08:56:50;38.63;;;20.30;;
12654;SDS011;6392;44.644;11.448;2024-02-21T08:59:17;45.57;;;24.87;;
12654;SDS011;6392;44.644;11.448;2024-02-21T09:01:45;38.70;;;23.43;;
12654;SDS011;6392;44.644;11.448;2024-02-21T09:04:13;35.90;;;20.80;;
12654;SDS011;6392;44.644;11.448;2024-02-21T09:06:40;35.40;;;21.40;;
12654;SDS011;6392;44.644;11.448;2024-02-21T09:09:07;36.83;;;22.90;;
12654;SDS011;6392;44.644;11.448;2024-02-21T09:11:35;39.33;;;22.73;;
12654;SDS011;6392;44.644;11.448;2024-02-21T09:14:02;42.80;;;22.30;;
12654;SDS011;6392;44.644;11.448;2024-02-21T09:16:30;39.23;;;21.40;;
12654;SDS011;6392;44.644;11.448;2024-02-21T09:18:59;41.07;;;22.97;;
12654;SDS011;6392;44.644;11.448;2024-02-21T09:21:26;40.07;;;23.40;;
12654;SDS011;6392;44.644;11.448;2024-02-21T09:23:54;41.03;;;24.10;;
12654;SDS011;6392;44.644;11.448;2024-02-21T09:26:21;39.23;;;24.17;;
12654;SDS011;6392;44.644;11.448;2024-02-21T09:28:48;39.43;;;23.30;;
12654;SDS011;6392;44.644;11.448;2024-02-21T09:31:16;37.73;;;24.33;;
12654;SDS011;6392;44.644;11.448;2024-02-21T09:33:43;40.73;;;24.50;;
12654;SDS011;6392;44.644;11.448;2024-02-21T09:36:12;46.37;;;25.73;;
12654;SDS011;6392;44.644;11.448;2024-02-21T09:38:39;49.03;;;27.47;;
12654;SDS011;6392;44.644;11.448;2024-02-21T09:41:09;45.57;;;26.40;;
12654;SDS011;6392;44.644;11.448;2024-02-21T09:43:41;45.47;;;26.87;;
12654;SDS011;6392;44.644;11.448;2024-02-21T09:46:12;42.87;;;25.83;;
12654;SDS011;6392;44.644;11.448;2024-02-21T09:48:45;48.33;;;27.77;;
12654;SDS011;6392;44.644;11.448;2024-02-21T09:51:27;45.17;;;27.20;;
12654;SDS011;6392;44.644;11.448;2024-02-21T09:53:57;49.27;;;28.27;;
12654;SDS011;6392;44.644;11.448;2024-02-21T09:56:25;48.43;;;28.60;;
12654;SDS011;6392;44.644;11.448;2024-02-21T09:58:52;49.37;;;29.07;;
12654;SDS011;6392;44.644;11.448;2024-02-21T10:01:19;50.50;;;28.90;;
12654;SDS011;6392;44.644;11.448;2024-02-21T10:03:46;53.17;;;30.27;;
12654;SDS011;6392;44.644;11.448;2024-02-21T10:06:13;48.67;;;28.60;;
12654;SDS011;6392;44.644;11.448;2024-02-21T10:08:41;53.43;;;30.73;;
12654;SDS011;6392;44.644;11.448;2024-02-21T10:11:08;54.77;;;31.37;;
12654;SDS011;6392;44.644;11.448;2024-02-21T10:13:35;55.63;;;31.10;;
12654;SDS011;6392;44.644;11.448;2024-02-21T10:16:03;48.03;;;29.27;;
12654;SDS011;6392;44.644;11.448;2024-02-21T10:18:31;53.27;;;31.43;;
12654;SDS011;6392;44.644;11.448;2024-02-21T10:21:02;49.73;;;29.23;;
12654;SDS011;6392;44.644;11.448;2024-02-21T10:23:42;50.53;;;28.73;;
12654;SDS011;6392;44.644;11.448;2024-02-21T10:26:10;49.20;;;29.60;;
12654;SDS011;6392;44.644;11.448;2024-02-21T10:28:37;46.60;;;28.53;;
12654;SDS011;6392;44.644;11.448;2024-02-21T10:31:07;50.57;;;29.93;;
12654;SDS011;6392;44.644;11.448;2024-02-21T10:33:35;48.47;;;28.67;;
12654;SDS011;6392;44.644;11.448;2024-02-21T10:36:06;47.50;;;28.73;;
12654;SDS011;6392;44.644;11.448;2024-02-21T10:38:34;46.13;;;26.93;;
12654;SDS011;6392;44.644;11.448;2024-02-21T10:41:04;46.57;;;28.00;;
12654;SDS011;6392;44.644;11.448;2024-02-21T10:43:33;44.93;;;26.93;;
12654;SDS011;6392;44.644;11.448;2024-02-21T10:46:05;44.13;;;25.73;;
12654;SDS011;6392;44.644;11.448;2024-02-21T10:48:36;46.80;;;28.37;;
12654;SDS011;6392;44.644;11.448;2024-02-21T10:51:11;39.03;;;24.90;;
12654;SDS011;6392;44.644;11.448;2024-02-21T10:53:44;40.97;;;24.33;;
12654;SDS011;6392;44.644;11.448;2024-02-21T10:56:18;42.27;;;25.07;;
12654;SDS011;6392;44.644;11.448;2024-02-21T10:58:49;41.83;;;25.13;;
12654;SDS011;6392;44.644;11.448;2024-02-21T11:01:18;43.23;;;26.43;;
12654;SDS011;6392;44.644;11.448;2024-02-21T11:03:46;43.03;;;26.53;;
12654;SDS011;6392;44.644;11.448;2024-02-21T11:06:14;41.43;;;25.60;;
12654;SDS011;6392;44.644;11.448;2024-02-21T11:08:43;43.20;;;26.40;;
12654;SDS011;6392;44.644;11.448;2024-02-21T11:11:12;42.07;;;25.37;;
12654;SDS011;6392;44.644;11.448;2024-02-21T11:13:43;40.30;;;23.60;;
12654;SDS011;6392;44.644;11.448;2024-02-21T11:16:11;37.80;;;24.23;;
12654;SDS011;6392;44.644;11.448;2024-02-21T11:18:48;35.50;;;22.10;;
12654;SDS011;6392;44.644;11.448;2024-02-21T11:21:15;41.27;;;24.73;;
12654;SDS011;6392;44.644;11.448;2024-02-21T11:23:42;41.70;;;26.47;;
12654;SDS011;6392;44.644;11.448;2024-02-21T11:26:09;41.67;;;25.53;;
12654;SDS011;6392;44.644;11.448;2024-02-21T11:28:37;39.90;;;24.63;;
12654;SDS011;6392;44.644;11.448;2024-02-21T11:31:07;35.70;;;23.03;;
12654;SDS011;6392;44.644;11.448;2024-02-21T11:33:35;38.97;;;24.07;;
12654;SDS011;6392;44.644;11.448;2024-02-21T11:36:05;42.60;;;26.20;;
12654;SDS011;6392;44.644;11.448;2024-02-21T11:38:32;38.10;;;24.27;;
12654;SDS011;6392;44.644;11.448;2024-02-21T11:40:59;40.43;;;23.40;;
12654;SDS011;6392;44.644;11.448;2024-02-21T11:43:27;37.83;;;23.33;;
12654;SDS011;6392;44.644;11.448;2024-02-21T11:45:58;35.37;;;23.20;;
12654;SDS011;6392;44.644;11.448;2024-02-21T11:48:27;34.83;;;21.47;;
12654;SDS011;6392;44.644;11.448;2024-02-21T11:50:54;35.43;;;22.63;;
12654;SDS011;6392;44.644;11.448;2024-02-21T11:53:22;37.93;;;22.03;;
12654;SDS011;6392;44.644;11.448;2024-02-21T11:55:49;37.37;;;22.43;;
12654;SDS011;6392;44.644;11.448;2024-02-21T11:58:16;30.93;;;19.73;;
12654;SDS011;6392;44.644;11.448;2024-02-21T12:00:43;33.47;;;20.23;;
12654;SDS011;6392;44.644;11.448;2024-02-21T12:03:10;33.23;;;20.37;;
12654;SDS011;6392;44.644;11.448;2024-02-21T12:05:39;34.13;;;21.30;;
12654;SDS011;6392;44.644;11.448;2024-02-21T12:08:07;27.90;;;18.47;;
12654;SDS011;6392;44.644;11.448;2024-02-21T12:10:35;32.70;;;19.70;;
12654;SDS011;6392;44.644;11.448;2024-02-21T12:13:05;28.17;;;18.73;;
12654;SDS011;6392;44.644;11.448;2024-02-21T12:15:33;31.03;;;19.57;;
12654;SDS011;6392;44.644;11.448;2024-02-21T12:18:00;30.20;;;20.13;;
12654;SDS011;6392;44.644;11.448;2024-02-21T12:20:28;33.87;;;21.37;;
12654;SDS011;6392;44.644;11.448;2024-02-21T12:22:57;30.67;;;19.43;;
12654;SDS011;6392;44.644;11.448;2024-02-21T12:25:26;29.53;;;18.87;;
12654;SDS011;6392;44.644;11.448;2024-02-21T12:27:55;28.67;;;17.27;;
12654;SDS011;6392;44.644;11.448;2024-02-21T12:30:22;28.00;;;17.27;;
12654;SDS011;6392;44.644;11.448;2024-02-21T12:32:49;29.07;;;18.30;;
12654;SDS011;6392;44.644;11.448;2024-02-21T12:35:16;27.47;;;18.37;;
12654;SDS011;6392;44.644;11.448;2024-02-21T12:37:44;29.63;;;17.93;;
12654;SDS011;6392;44.644;11.448;2024-02-21T12:40:12;25.97;;;15.60;;
12654;SDS011;6392;44.644;11.448;2024-02-21T12:42:39;24.60;;;16.53;;
12654;SDS011;6392;44.644;11.448;2024-02-21T12:45:07;28.20;;;17.40;;
12654;SDS011;6392;44.644;11.448;2024-02-21T12:47:34;28.60;;;19.63;;
12654;SDS011;6392;44.644;11.448;2024-02-21T12:50:02;30.57;;;18.13;;
12654;SDS011;6392;44.644;11.448;2024-02-21T12:52:32;26.43;;;17.50;;
12654;SDS011;6392;44.644;11.448;2024-02-21T12:54:59;29.43;;;16.57;;
12654;SDS011;6392;44.644;11.448;2024-02-21T12:57:27;23.97;;;15.27;;
12654;SDS011;6392;44.644;11.448;2024-02-21T12:59:54;21.90;;;15.10;;
12654;SDS011;6392;44.644;11.448;2024-02-21T13:02:21;27.37;;;15.83;;
12654;SDS011;6392;44.644;11.448;2024-02-21T13:04:48;21.97;;;14.40;;
12654;SDS011;6392;44.644;11.448;2024-02-21T13:07:15;19.50;;;13.10;;
12654;SDS011;6392;44.644;11.448;2024-02-21T13:09:42;22.90;;;14.30;;
12654;SDS011;6392;44.644;11.448;2024-02-21T13:12:10;23.83;;;13.60;;
12654;SDS011;6392;44.644;11.448;2024-02-21T13:14:38;20.30;;;14.30;;
12654;SDS011;6392;44.644;11.448;2024-02-21T13:17:08;28.37;;;16.93;;
12654;SDS011;6392;44.644;11.448;2024-02-21T13:19:35;25.83;;;16.20;;
12654;SDS011;6392;44.644;11.448;2024-02-21T13:22:02;23.93;;;15.43;;
12654;SDS011;6392;44.644;11.448;2024-02-21T13:24:29;20.33;;;14.07;;
12654;SDS011;6392;44.644;11.448;2024-02-21T13:26:56;24.50;;;16.13;;
12654;SDS011;6392;44.644;11.448;2024-02-21T13:29:23;19.47;;;13.90;;
12654;SDS011;6392;44.644;11.448;2024-02-21T13:31:52;21.93;;;15.20;;
12654;SDS011;6392;44.644;11.448;2024-02-21T13:34:19;22.47;;;14.87;;
12654;SDS011;6392;44.644;11.448;2024-02-21T13:36:46;23.33;;;13.60;;
12654;SDS011;6392;44.644;11.448;2024-02-21T13:39:13;21.23;;;13.67;;
12654;SDS011;6392;44.644;11.448;2024-02-21T13:41:41;19.53;;;12.83;;
12654;SDS011;6392;44.644;11.448;2024-02-21T13:44:08;21.07;;;13.77;;
12654;SDS011;6392;44.644;11.448;2024-02-21T13:46:35;24.27;;;14.10;;
12654;SDS011;6392;44.644;11.448;2024-02-21T13:49:04;22.00;;;14.93;;
12654;SDS011;6392;44.644;11.448;2024-02-21T13:51:32;22.60;;;16.20;;
12654;SDS011;6392;44.644;11.448;2024-02-21T13:54:01;23.87;;;16.50;;
12654;SDS011;6392;44.644;11.448;2024-02-21T13:56:29;22.20;;;14.50;;
12654;SDS011;6392;44.644;11.448;2024-02-21T13:58:58;20.17;;;14.00;;
12654;SDS011;6392;44.644;11.448;2024-02-21T14:01:26;18.57;;;13.73;;
12654;SDS011;6392;44.644;11.448;2024-02-21T14:03:53;20.97;;;13.43;;
12654;SDS011;6392;44.644;11.448;2024-02-21T14:06:21;18.97;;;13.27;;
12654;SDS011;6392;44.644;11.448;2024-02-21T14:08:48;18.77;;;12.87;;
12654;SDS011;6392;44.644;11.448;2024-02-21T14:11:16;20.23;;;12.70;;
12654;SDS011;6392;44.644;11.448;2024-02-21T14:13:43;19.10;;;13.17;;
12654;SDS011;6392;44.644;11.448;2024-02-21T14:16:11;17.80;;;12.50;;
12654;SDS011;6392;44.644;11.448;2024-02-21T14:18:38;17.40;;;11.60;;
12654;SDS011;6392;44.644;11.448;2024-02-21T14:21:07;19.33;;;11.13;;
12654;SDS011;6392;44.644;11.448;2024-02-21T14:23:37;19.50;;;12.10;;